Time;durP1;ratioP1;P1;durP2;ratioP2;P2;SDS_P1;SDS_P2;PMS_P1;PMS_P2;Temp;Humidity;BMP_temperature;BMP_pressure;BME280_temperature;BME280_humidity;BME280_pressure;Samples;Min_cycle;Max_cycle;Signal;HPM_P1;HPM_P2
2023/02/03 00:01:08;;;;;;;5.23;1.17;;;7.30;99.90;;;;;;5079422;28;20510;-74
2023/02/03 00:03:33;;;;;;;5.60;1.10;;;7.30;99.90;;;;;;5095353;28;20107;-75
2023/02/03 00:06:02;;;;;;;5.57;1.57;;;7.30;99.90;;;;;;5083910;28;20480;-73
2023/02/03 00:08:27;;;;;;;4.03;1.50;;;7.30;99.90;;;;;;5090944;28;20023;-75
2023/02/03 00:10:53;;;;;;;3.73;1.50;;;7.30;99.90;;;;;;5093017;28;20388;-74
2023/02/03 00:13:19;;;;;;;3.23;1.67;;;7.30;99.90;;;;;;5080875;28;20461;-73
2023/02/03 00:15:45;;;;;;;1.83;1.23;;;7.30;99.90;;;;;;5094982;28;20024;-75
2023/02/03 00:18:10;;;;;;;6.83;1.40;;;7.30;99.90;;;;;;5113732;28;20444;-74
2023/02/03 00:20:36;;;;;;;2.53;1.30;;;7.30;99.90;;;;;;5078658;28;20059;-73
2023/02/03 00:23:06;;;;;;;4.50;1.70;;;7.30;99.90;;;;;;5091182;28;20024;-74
2023/02/03 00:25:32;;;;;;;4.00;1.67;;;7.30;99.90;;;;;;5082941;28;20024;-73
2023/02/03 00:27:58;;;;;;;5.27;1.90;;;7.20;99.90;;;;;;5094730;28;20369;-74
2023/02/03 00:30:23;;;;;;;3.80;1.60;;;7.30;99.90;;;;;;5094795;28;20031;-73
2023/02/03 00:32:49;;;;;;;3.40;1.60;;;7.20;99.90;;;;;;5095824;28;20032;-74
2023/02/03 00:35:15;;;;;;;3.63;1.60;;;7.30;99.90;;;;;;5090051;28;20042;-73
2023/02/03 00:37:40;;;;;;;5.13;1.87;;;7.30;99.90;;;;;;5092880;28;20032;-73
2023/02/03 00:40:06;;;;;;;3.00;1.33;;;7.30;99.90;;;;;;5086577;28;20063;-73
2023/02/03 00:42:34;;;;;;;3.67;1.60;;;7.30;99.90;;;;;;5079305;28;20032;-73
2023/02/03 00:45:00;;;;;;;2.35;1.30;;;7.30;99.90;;;;;;5077368;28;20027;-73
2023/02/03 00:47:25;;;;;;;5.68;1.80;;;7.30;99.90;;;;;;5087960;28;20024;-73
2023/02/03 00:49:51;;;;;;;5.03;1.90;;;7.30;99.90;;;;;;5102181;28;20598;-74
2023/02/03 00:52:16;;;;;;;4.87;2.00;;;7.30;99.90;;;;;;5098991;28;20031;-73
2023/02/03 00:54:42;;;;;;;4.27;1.90;;;7.30;99.90;;;;;;5090926;28;20460;-76
2023/02/03 00:57:08;;;;;;;5.83;1.60;;;7.30;99.90;;;;;;5103669;28;20103;-74
2023/02/03 00:59:33;;;;;;;3.73;1.37;;;7.30;99.90;;;;;;5092510;28;20111;-73
2023/02/03 01:01:59;;;;;;;4.27;1.50;;;7.30;99.90;;;;;;5103257;28;20471;-73
2023/02/03 01:04:25;;;;;;;4.63;1.53;;;7.30;99.90;;;;;;5112969;28;20034;-73
2023/02/03 01:06:53;;;;;;;3.83;1.43;;;7.30;99.90;;;;;;5077237;28;20038;-73
2023/02/03 01:09:18;;;;;;;4.93;1.60;;;7.30;99.90;;;;;;5094549;28;20034;-73
2023/02/03 01:11:44;;;;;;;6.13;1.60;;;7.30;99.90;;;;;;5084518;28;20024;-75
2023/02/03 01:14:10;;;;;;;3.75;1.40;;;7.30;99.90;;;;;;5104787;28;20526;-73
2023/02/03 01:16:37;;;;;;;3.93;1.30;;;7.30;99.90;;;;;;5078348;28;20028;-73
2023/02/03 01:19:04;;;;;;;4.83;1.70;;;7.30;99.90;;;;;;5076852;28;20034;-73
2023/02/03 01:21:30;;;;;;;4.53;1.53;;;7.30;99.90;;;;;;5105708;28;20095;-73
2023/02/03 01:23:57;;;;;;;2.90;1.30;;;7.30;99.90;;;;;;5084482;28;20020;-73
2023/02/03 01:26:23;;;;;;;4.30;1.30;;;7.40;99.90;;;;;;5094197;28;20139;-73
2023/02/03 01:28:57;;;;;;;3.77;1.50;;;7.40;99.90;;;;;;5092100;28;20023;-73
2023/02/03 01:31:32;;;;;;;4.70;1.47;;;7.40;99.90;;;;;;5079985;28;20036;-73
2023/02/03 01:33:58;;;;;;;5.60;1.40;;;7.40;99.90;;;;;;5082211;28;20148;-74
2023/02/03 01:36:25;;;;;;;5.70;1.50;;;7.40;99.90;;;;;;5088606;28;20028;-76
2023/02/03 01:38:51;;;;;;;2.65;1.30;;;7.40;99.90;;;;;;5093367;28;20465;-73
2023/02/03 01:41:21;;;;;;;3.67;1.40;;;7.40;99.90;;;;;;5112396;28;20072;-70
2023/02/03 01:43:49;;;;;;;11.37;5.80;;;7.40;99.90;;;;;;5084153;28;20107;-75
2023/02/03 01:46:23;;;;;;;6.13;1.83;;;7.50;99.90;;;;;;5087573;28;20114;-73
2023/02/03 01:48:50;;;;;;;3.27;1.47;;;7.50;99.90;;;;;;5075280;28;20020;-74
2023/02/03 01:51:16;;;;;;;2.60;1.23;;;7.40;99.90;;;;;;5092317;28;20028;-73
2023/02/03 01:53:42;;;;;;;3.43;1.40;;;7.40;99.90;;;;;;5083002;28;20034;-75
2023/02/03 01:56:09;;;;;;;2.45;1.30;;;7.40;99.90;;;;;;5104608;28;20028;-74
2023/02/03 01:58:38;;;;;;;2.13;1.30;;;7.40;99.90;;;;;;5074230;28;20031;-73
2023/02/03 02:01:04;;;;;;;5.17;1.50;;;7.30;99.90;;;;;;5073786;28;20028;-73
2023/02/03 02:03:43;;;;;;;3.50;1.43;;;7.30;99.90;;;;;;5081150;28;20020;-73
2023/02/03 02:06:11;;;;;;;3.80;1.60;;;7.30;99.90;;;;;;5093590;28;20020;-73
2023/02/03 02:08:38;;;;;;;3.10;1.20;;;7.20;99.90;;;;;;5112418;28;20102;-73
2023/02/03 02:11:05;;;;;;;6.77;1.50;;;7.20;99.90;;;;;;5093776;28;20023;-73
2023/02/03 02:13:36;;;;;;;4.03;1.20;;;7.20;99.90;;;;;;5094290;28;20472;-73
2023/02/03 02:16:13;;;;;;;3.13;1.23;;;7.20;99.90;;;;;;5081982;28;20047;-74
2023/02/03 02:19:01;;;;;;;6.40;1.40;;;7.20;99.90;;;;;;5090731;28;20077;-74
2023/02/03 02:21:35;;;;;;;3.67;1.10;;;7.20;99.90;;;;;;5073935;28;20132;-74
2023/02/03 02:24:19;;;;;;;3.50;1.20;;;7.20;99.90;;;;;;5088409;28;20023;-73
2023/02/03 02:27:09;;;;;;;5.53;1.30;;;7.20;99.90;;;;;;5090569;28;20059;-75
2023/02/03 02:30:03;;;;;;;2.23;0.90;;;7.20;99.90;;;;;;5085123;28;20054;-73
2023/02/03 02:33:05;;;;;;;2.33;1.20;;;7.20;99.90;;;;;;5115758;28;20031;-72
2023/02/03 02:35:54;;;;;;;;;;;7.20;99.90;;;;;;5063437;28;20035;-73
2023/02/03 02:38:34;;;;;;;4.13;1.23;;;7.20;99.90;;;;;;5082837;28;19955;-73
2023/02/03 02:41:15;;;;;;;2.80;1.40;;;7.20;99.90;;;;;;5114902;28;20019;-72
2023/02/03 02:43:58;;;;;;;2.97;1.10;;;7.10;99.90;;;;;;5097697;28;20046;-73
2023/02/03 02:46:38;;;;;;;1.73;1.13;;;7.10;99.90;;;;;;5082834;28;20781;-74
2023/02/03 02:49:12;;;;;;;2.70;1.40;;;7.10;99.90;;;;;;5076209;28;20035;-73
2023/02/03 02:51:40;;;;;;;2.03;1.10;;;7.20;99.90;;;;;;5085268;28;20479;-74
2023/02/03 02:54:09;;;;;;;1.70;1.20;;;7.10;99.90;;;;;;5102274;28;20054;-75
2023/02/03 02:56:39;;;;;;;1.80;1.10;;;7.10;99.90;;;;;;5103865;28;20488;-75
2023/02/03 02:59:06;;;;;;;1.70;1.20;;;7.20;99.90;;;;;;5079244;28;20024;-74
2023/02/03 03:01:32;;;;;;;3.37;1.20;;;7.20;99.90;;;;;;5096799;28;20027;-74
2023/02/03 03:04:02;;;;;;;3.73;1.17;;;7.10;99.90;;;;;;5103559;28;20027;-74
2023/02/03 03:06:46;;;;;;;3.17;1.30;;;7.10;99.90;;;;;;5076997;28;20039;-73
2023/02/03 03:09:23;;;;;;;2.83;1.10;;;7.20;99.90;;;;;;5084476;28;20536;-73
2023/02/03 03:11:58;;;;;;;2.37;1.17;;;7.20;99.90;;;;;;5114804;28;20534;-74
2023/02/03 03:14:25;;;;;;;1.53;1.10;;;7.10;99.90;;;;;;5115560;28;20082;-74
2023/02/03 03:16:58;;;;;;;2.03;1.03;;;7.20;99.90;;;;;;5114885;28;20080;-74
2023/02/03 03:19:28;;;;;;;1.23;1.00;;;7.20;99.90;;;;;;5091781;28;20048;-75
2023/02/03 03:21:59;;;;;;;3.17;1.87;;;7.20;99.90;;;;;;5076578;28;20032;-74
2023/02/03 03:24:32;;;;;;;2.80;1.10;;;7.20;99.90;;;;;;5095470;28;20016;-74
2023/02/03 03:27:05;;;;;;;4.73;1.60;;;7.20;99.90;;;;;;5076450;28;20035;-74
2023/02/03 03:29:53;;;;;;;1.90;1.00;;;7.20;99.90;;;;;;5076491;28;20043;-73
2023/02/03 03:32:19;;;;;;;1.70;1.10;;;7.20;99.90;;;;;;5094521;28;20042;-74
2023/02/03 03:34:45;;;;;;;3.73;1.10;;;7.20;99.90;;;;;;5095012;28;20390;-78
2023/02/03 03:37:19;;;;;;;2.47;1.03;;;7.20;99.90;;;;;;5096276;28;20063;-74
2023/02/03 03:39:46;;;;;;;3.00;1.20;;;7.20;99.90;;;;;;5096773;28;20023;-76
2023/02/03 03:42:36;;;;;;;2.60;0.90;;;7.20;99.90;;;;;;5097015;28;20027;-74
2023/02/03 03:45:16;;;;;;;3.03;1.20;;;7.10;99.90;;;;;;5096147;28;20028;-74
2023/02/03 03:48:29;;;;;;;3.30;1.30;;;7.20;99.90;;;;;;5096743;28;20035;-74
2023/02/03 03:51:01;;;;;;;3.80;1.20;;;7.20;99.90;;;;;;5065082;28;20078;-73
2023/02/03 03:53:29;;;;;;;1.40;1.10;;;7.10;99.90;;;;;;5115043;28;20031;-74
2023/02/03 03:55:59;;;;;;;4.30;1.30;;;7.10;99.90;;;;;;5096213;28;20472;-74
2023/02/03 03:58:30;;;;;;;2.00;1.07;;;7.10;99.90;;;;;;5096530;28;20027;-74
2023/02/03 04:01:01;;;;;;;1.95;1.20;;;7.10;99.90;;;;;;5095926;28;20039;-74
2023/02/03 04:03:38;;;;;;;3.73;1.30;;;7.20;99.90;;;;;;5096614;28;20031;-74
2023/02/03 04:06:04;;;;;;;1.93;0.93;;;7.20;99.90;;;;;;5095732;28;20119;-74
2023/02/03 04:08:30;;;;;;;3.37;1.20;;;7.20;99.90;;;;;;5096603;28;20030;-73
2023/02/03 04:10:56;;;;;;;2.83;1.10;;;7.20;99.90;;;;;;5095984;28;20114;-74
2023/02/03 04:13:21;;;;;;;1.13;1.03;;;7.20;99.90;;;;;;5096471;28;20202;-74
2023/02/03 04:15:47;;;;;;;1.53;1.20;;;7.20;99.90;;;;;;5114521;28;20016;-75
2023/02/03 04:18:14;;;;;;;2.40;1.00;;;7.20;99.90;;;;;;5095892;28;20027;-74
2023/02/03 04:20:39;;;;;;;3.03;1.03;;;7.10;99.90;;;;;;5095708;28;20093;-74
2023/02/03 04:23:05;;;;;;;2.40;0.80;;;7.10;99.90;;;;;;5095616;28;20411;-74
2023/02/03 04:25:31;;;;;;;0.80;0.80;;;7.00;99.90;;;;;;5096169;28;20030;-74
2023/02/03 04:27:56;;;;;;;2.27;0.90;;;7.00;99.90;;;;;;5095467;28;20487;-74
2023/02/03 04:30:22;;;;;;;2.53;0.95;;;7.00;99.90;;;;;;5095705;28;20039;-74
2023/02/03 04:32:48;;;;;;;2.77;0.90;;;6.90;99.90;;;;;;5095577;28;20027;-77
2023/02/03 04:35:14;;;;;;;1.27;1.00;;;6.90;99.90;;;;;;5095514;28;20027;-74
2023/02/03 04:37:40;;;;;;;3.17;1.10;;;6.90;99.90;;;;;;5095691;28;20039;-74
2023/02/03 04:40:07;;;;;;;1.97;1.10;;;6.90;99.90;;;;;;5094864;28;20434;-74
2023/02/03 04:42:32;;;;;;;1.53;1.00;;;6.90;99.90;;;;;;5095507;28;20135;-74
2023/02/03 04:44:58;;;;;;;1.70;1.00;;;6.90;99.90;;;;;;5095106;28;20114;-74
2023/02/03 04:47:23;;;;;;;3.40;1.10;;;6.90;99.90;;;;;;5095587;28;20028;-74
2023/02/03 04:49:49;;;;;;;1.17;1.00;;;7.00;99.90;;;;;;5113492;28;20028;-78
2023/02/03 04:52:15;;;;;;;1.43;0.93;;;7.00;99.90;;;;;;5095002;28;20032;-74
2023/02/03 04:54:41;;;;;;;1.63;1.03;;;7.00;99.90;;;;;;5095603;28;20030;-74
2023/02/03 04:57:07;;;;;;;4.27;1.60;;;7.00;99.90;;;;;;5094692;28;20035;-74
2023/02/03 04:59:32;;;;;;;1.70;1.10;;;7.00;99.90;;;;;;5095365;28;20077;-74
2023/02/03 05:02:00;;;;;;;3.23;1.30;;;7.00;99.90;;;;;;5094991;28;20023;-74
2023/02/03 05:04:26;;;;;;;2.70;1.10;;;7.00;99.90;;;;;;5095414;28;20054;-74
2023/02/03 05:06:51;;;;;;;4.17;1.20;;;7.00;99.90;;;;;;5112975;28;20063;-77
2023/02/03 05:09:17;;;;;;;2.93;1.03;;;7.00;99.90;;;;;;5095038;28;20068;-73
2023/02/03 05:11:42;;;;;;;3.17;1.00;;;7.00;99.90;;;;;;5095324;28;20034;-73
2023/02/03 05:14:08;;;;;;;1.90;1.17;;;7.00;99.90;;;;;;5112639;28;20019;-74
2023/02/03 05:16:33;;;;;;;1.73;1.15;;;7.10;99.90;;;;;;5095267;28;20030;-74
2023/02/03 05:18:59;;;;;;;3.33;1.20;;;7.10;99.90;;;;;;5094622;28;20097;-74
2023/02/03 05:21:25;;;;;;;2.50;1.17;;;7.10;99.90;;;;;;5094911;28;20048;-73
2023/02/03 05:23:50;;;;;;;2.47;1.37;;;7.10;99.90;;;;;;5094804;28;20024;-74
2023/02/03 05:26:16;;;;;;;2.03;1.13;;;7.10;99.90;;;;;;5094147;28;20027;-74
2023/02/03 05:28:41;;;;;;;1.70;1.10;;;7.10;99.90;;;;;;5095003;28;20035;-74
2023/02/03 05:31:07;;;;;;;2.20;1.10;;;7.10;99.90;;;;;;5112181;28;20023;-74
2023/02/03 05:33:33;;;;;;;2.00;1.17;;;7.20;99.90;;;;;;5094690;28;20476;-74
2023/02/03 05:35:58;;;;;;;1.60;0.90;;;7.20;99.90;;;;;;5094139;28;20035;-75
2023/02/03 05:38:24;;;;;;;3.20;1.30;;;7.20;99.90;;;;;;5094908;28;20491;-74
2023/02/03 05:43:35;;;;;;;3.03;1.50;;;7.10;99.90;;;;;;5113158;28;20039;-74
2023/02/03 05:46:03;;;;;;;4.17;1.10;;;7.10;99.90;;;;;;5112466;28;20034;-74
2023/02/03 05:48:28;;;;;;;2.73;1.00;;;7.10;99.90;;;;;;5094426;28;20023;-74
2023/02/03 05:50:54;;;;;;;2.10;1.10;;;7.10;99.90;;;;;;5112342;28;20065;-77
2023/02/03 05:53:20;;;;;;;2.10;1.03;;;7.10;99.90;;;;;;5094263;28;20515;-74
2023/02/03 05:55:45;;;;;;;1.60;0.87;;;7.10;99.90;;;;;;5112518;28;20458;-74
2023/02/03 05:58:11;;;;;;;3.47;1.10;;;7.10;99.90;;;;;;5097737;28;20035;-74
2023/02/03 06:00:36;;;;;;;3.30;1.20;;;7.10;99.90;;;;;;5098562;28;20036;-74
2023/02/03 06:03:03;;;;;;;2.60;1.20;;;7.10;99.90;;;;;;5097905;28;20027;-74
2023/02/03 06:05:30;;;;;;;2.90;1.17;;;7.10;99.90;;;;;;5098541;28;20453;-73
2023/02/03 06:07:56;;;;;;;2.03;1.20;;;7.10;99.90;;;;;;5097898;28;20031;-78
2023/02/03 06:10:21;;;;;;;1.80;1.10;;;7.10;99.90;;;;;;5116595;28;20027;-73
2023/02/03 06:12:48;;;;;;;1.27;0.93;;;7.10;99.90;;;;;;5098124;28;20168;-73
2023/02/03 06:15:14;;;;;;;1.53;0.80;;;7.10;99.90;;;;;;5097594;28;20130;-74
2023/02/03 06:17:42;;;;;;;4.00;1.20;;;7.10;99.90;;;;;;5116715;28;20120;-74
2023/02/03 06:20:10;;;;;;;2.67;1.00;;;7.10;99.90;;;;;;5115438;28;20497;-74
2023/02/03 06:22:35;;;;;;;1.50;1.10;;;7.10;99.90;;;;;;5116617;28;20516;-73
2023/02/03 06:25:01;;;;;;;2.93;1.00;;;7.10;99.90;;;;;;5116198;28;20107;-74
2023/02/03 06:27:26;;;;;;;3.93;0.90;;;7.10;99.90;;;;;;5116625;28;20054;-74
2023/02/03 06:29:52;;;;;;;3.67;1.00;;;7.10;99.90;;;;;;5098509;28;20041;-74
2023/02/03 06:32:17;;;;;;;2.53;1.00;;;7.10;99.90;;;;;;5097782;28;20483;-74
2023/02/03 06:34:43;;;;;;;3.37;1.10;;;7.10;99.90;;;;;;5098364;28;20024;-74
2023/02/03 06:37:09;;;;;;;2.07;1.20;;;7.00;99.90;;;;;;5116058;28;20456;-73
2023/02/03 06:39:34;;;;;;;2.07;1.20;;;6.90;99.90;;;;;;5097953;28;20027;-74
2023/02/03 06:42:01;;;;;;;2.50;1.00;;;6.90;99.90;;;;;;5097299;28;20541;-74
2023/02/03 06:44:26;;;;;;;1.77;0.83;;;6.90;99.90;;;;;;5097761;28;20019;-74
2023/02/03 06:46:52;;;;;;;2.47;1.00;;;6.90;99.90;;;;;;5115910;28;20126;-73
2023/02/03 06:49:18;;;;;;;3.60;1.13;;;6.80;99.90;;;;;;5097206;28;20023;-74
2023/02/03 06:51:44;;;;;;;2.20;1.00;;;6.80;99.90;;;;;;5097796;28;20028;-74
2023/02/03 06:54:11;;;;;;;2.30;0.93;;;6.80;99.90;;;;;;5097162;28;20506;-74
2023/02/03 06:56:37;;;;;;;4.13;1.07;;;6.80;99.90;;;;;;5097311;28;20147;-74
2023/02/03 06:59:03;;;;;;;2.37;0.90;;;6.80;99.90;;;;;;5096755;28;20044;-74
2023/02/03 07:01:29;;;;;;;2.53;0.87;;;6.80;99.90;;;;;;5097365;28;20028;-74
2023/02/03 07:03:57;;;;;;;2.43;1.00;;;6.70;99.90;;;;;;5097594;28;20055;-74
2023/02/03 07:06:27;;;;;;;1.57;0.90;;;6.70;99.90;;;;;;5097214;28;20381;-74
2023/02/03 07:08:54;;;;;;;3.30;1.10;;;6.70;99.90;;;;;;5096285;28;20521;-74
2023/02/03 07:11:20;;;;;;;2.47;1.10;;;6.70;99.90;;;;;;5097070;28;20027;-74
2023/02/03 07:13:45;;;;;;;3.20;1.13;;;6.70;99.90;;;;;;5115649;28;20031;-74
2023/02/03 07:16:11;;;;;;;2.37;1.00;;;6.70;99.90;;;;;;5096820;28;20053;-74
2023/02/03 07:18:36;;;;;;;3.53;1.33;;;6.70;99.90;;;;;;5097352;28;20020;-74
2023/02/03 07:21:04;;;;;;;5.07;1.20;;;6.70;99.90;;;;;;5096434;28;20054;-75
2023/02/03 07:23:30;;;;;;;3.60;1.17;;;6.70;99.90;;;;;;5115706;28;20030;-74
2023/02/03 07:26:03;;;;;;;5.17;1.10;;;6.70;99.90;;;;;;5115772;28;20110;-74
2023/02/03 07:28:32;;;;;;;2.17;1.10;;;6.70;99.90;;;;;;5096955;28;20169;-74
2023/02/03 07:30:59;;;;;;;1.97;1.17;;;6.70;99.90;;;;;;5096954;28;20388;-75
2023/02/03 07:33:24;;;;;;;1.77;1.00;;;6.70;99.90;;;;;;5114947;28;20020;-74
2023/02/03 07:35:55;;;;;;;5.00;1.40;;;6.70;99.90;;;;;;5096906;28;20031;-73
2023/02/03 07:38:22;;;;;;;2.43;1.20;;;6.70;99.90;;;;;;5096141;28;20038;-74
2023/02/03 07:40:47;;;;;;;1.77;1.30;;;6.70;99.90;;;;;;5096661;28;20089;-74
2023/02/03 07:43:13;;;;;;;4.53;1.70;;;6.70;99.90;;;;;;5100253;28;20085;-74
2023/02/03 07:45:39;;;;;;;2.83;1.30;;;6.70;99.90;;;;;;5093492;28;20032;-73
2023/02/03 07:48:04;;;;;;;2.57;1.40;;;6.70;99.90;;;;;;5084910;28;20028;-74
2023/02/03 07:50:31;;;;;;;3.80;1.30;;;6.70;99.90;;;;;;5096611;28;20448;-74
2023/02/03 07:52:57;;;;;;;3.50;1.40;;;6.80;99.90;;;;;;5077023;28;20024;-74
2023/02/03 07:55:23;;;;;;;4.27;1.37;;;6.80;99.90;;;;;;5075388;28;20027;-74
2023/02/03 07:57:49;;;;;;;5.10;1.60;;;6.80;99.90;;;;;;5083012;28;20096;-73
2023/02/03 08:00:15;;;;;;;3.83;1.60;;;6.80;99.90;;;;;;5095111;28;20122;-74
2023/02/03 08:02:42;;;;;;;3.20;1.30;;;6.80;99.90;;;;;;5096181;28;20111;-73
2023/02/03 08:05:08;;;;;;;3.33;1.30;;;6.90;99.90;;;;;;5078425;28;20028;-74
2023/02/03 08:07:34;;;;;;;3.10;1.60;;;6.90;99.90;;;;;;5095551;28;20445;-74
2023/02/03 08:10:00;;;;;;;2.37;1.20;;;6.90;99.90;;;;;;5104770;28;20024;-77
2023/02/03 08:12:25;;;;;;;3.33;1.30;;;6.90;99.90;;;;;;5078465;28;20538;-73
2023/02/03 08:14:51;;;;;;;6.00;1.60;;;6.90;99.90;;;;;;5091297;28;20451;-74
2023/02/03 08:17:16;;;;;;;2.27;1.43;;;6.90;99.90;;;;;;5092224;28;20032;-74
2023/02/03 08:19:42;;;;;;;2.10;1.20;;;7.00;99.90;;;;;;5099416;28;20086;-73
2023/02/03 08:22:08;;;;;;;3.00;1.27;;;7.00;99.90;;;;;;5113646;28;20027;-72
2023/02/03 08:24:33;;;;;;;3.00;1.30;;;7.00;99.90;;;;;;5114058;28;20051;-73
2023/02/03 08:27:00;;;;;;;6.87;2.70;;;7.00;99.90;;;;;;5078606;28;20056;-73
2023/02/03 08:29:26;;;;;;;4.30;2.17;;;7.00;99.90;;;;;;5078956;28;20104;-73
2023/02/03 08:31:53;;;;;;;5.97;2.10;;;7.00;99.90;;;;;;5114052;28;20098;-74
2023/02/03 08:34:18;;;;;;;3.57;1.50;;;7.10;99.90;;;;;;5095089;28;20028;-72
2023/02/03 08:36:44;;;;;;;8.90;1.83;;;7.10;99.90;;;;;;5113929;28;20576;-73
2023/02/03 08:39:10;;;;;;;3.87;1.77;;;7.10;99.90;;;;;;5092685;28;20024;-73
2023/02/03 08:41:35;;;;;;;7.00;1.80;;;7.10;99.90;;;;;;5102233;28;20024;-74
2023/02/03 08:44:01;;;;;;;3.70;1.80;;;7.00;99.90;;;;;;5111484;28;20091;-77
2023/02/03 08:46:27;;;;;;;5.00;1.80;;;7.10;99.90;;;;;;5093809;28;20461;-73
2023/02/03 08:48:55;;;;;;;5.70;1.77;;;7.00;99.90;;;;;;5095294;28;20077;-71
2023/02/03 08:51:20;;;;;;;2.75;1.45;;;7.10;99.90;;;;;;5082808;28;20116;-73
2023/02/03 08:53:46;;;;;;;4.27;1.50;;;7.10;99.90;;;;;;5085160;28;20047;-72
2023/02/03 08:56:12;;;;;;;4.57;1.70;;;7.10;99.90;;;;;;5107780;28;20081;-75
2023/02/03 08:58:38;;;;;;;5.20;2.37;;;7.20;99.90;;;;;;5079963;28;20028;-75
2023/02/03 09:01:14;;;;;;;3.08;1.65;;;7.20;99.90;;;;;;5108076;28;20054;-76
2023/02/03 09:03:40;;;;;;;3.38;1.35;;;7.20;99.90;;;;;;5112662;28;20027;-74
2023/02/03 09:06:07;;;;;;;5.23;1.43;;;7.30;99.90;;;;;;5094643;28;20084;-74
2023/02/03 09:08:33;;;;;;;2.17;1.30;;;7.30;99.90;;;;;;5095340;28;20061;-75
2023/02/03 09:10:59;;;;;;;3.20;1.50;;;7.30;99.90;;;;;;5113375;28;20059;-76
2023/02/03 09:13:24;;;;;;;2.90;1.60;;;7.30;99.90;;;;;;5073353;28;20028;-75
2023/02/03 09:15:50;;;;;;;4.82;2.03;;;7.30;99.90;;;;;;5078322;28;20066;-74
2023/02/03 09:18:16;;;;;;;7.93;1.90;;;7.30;99.90;;;;;;5087106;28;20036;-74
2023/02/03 09:20:41;;;;;;;4.47;1.40;;;7.30;99.90;;;;;;5090351;28;20183;-74
2023/02/03 09:23:07;;;;;;;5.23;2.00;;;7.30;99.90;;;;;;5088064;28;20465;-74
2023/02/03 09:25:33;;;;;;;2.90;1.65;;;7.30;99.90;;;;;;5107079;28;20024;-75
2023/02/03 09:28:01;;;;;;;2.92;1.30;;;7.40;99.90;;;;;;5084668;28;20031;-73
2023/02/03 09:30:27;;;;;;;6.80;1.70;;;7.40;99.90;;;;;;5084460;28;20036;-72
2023/02/03 09:32:53;;;;;;;3.03;1.70;;;7.40;99.90;;;;;;5084033;28;20034;-73
2023/02/03 09:35:20;;;;;;;5.60;1.52;;;7.30;99.90;;;;;;5103076;28;20020;-73
2023/02/03 09:37:45;;;;;;;9.07;1.70;;;7.30;99.90;;;;;;5087525;28;20028;-73
2023/02/03 09:40:20;;;;;;;4.28;1.70;;;7.30;99.90;;;;;;5087344;28;20422;-73
2023/02/03 09:43:06;;;;;;;1.50;1.20;;;7.30;99.90;;;;;;5078232;28;20027;-74
2023/02/03 09:45:32;;;;;;;2.03;1.52;;;7.30;99.90;;;;;;5073195;28;20032;-73
2023/02/03 09:48:23;;;;;;;2.23;1.40;;;7.40;99.90;;;;;;5078161;28;20029;-73
2023/02/03 09:50:50;;;;;;;5.83;1.57;;;7.50;99.90;;;;;;5078270;28;20484;-73
2023/02/03 09:53:44;;;;;;;3.78;1.50;;;7.60;99.90;;;;;;5107692;28;20099;-74
2023/02/03 09:56:51;;;;;;;4.03;1.75;;;7.60;99.90;;;;;;5073213;28;20388;-74
2023/02/03 09:59:17;;;;;;;5.13;1.50;;;7.70;99.90;;;;;;5025841;28;20067;-72
2023/02/03 10:01:54;;;;;;;2.58;1.20;;;7.70;99.90;;;;;;5087397;28;20067;-74
2023/02/03 10:04:38;;;;;;;2.75;1.55;;;7.70;99.90;;;;;;5077168;28;20461;-74
2023/02/03 10:07:14;;;;;;;2.67;1.45;;;7.60;99.90;;;;;;5078271;28;20036;-77
2023/02/03 10:10:16;;;;;;;4.80;1.90;;;7.70;99.90;;;;;;5088511;28;20097;-73
2023/02/03 10:13:09;;;;;;;5.35;1.40;;;7.70;99.90;;;;;;5079842;28;20024;-74
2023/02/03 10:15:46;;;;;;;4.10;1.58;;;7.70;99.90;;;;;;5078678;28;20110;-73
2023/02/03 10:18:17;;;;;;;3.08;1.63;;;7.70;99.90;;;;;;5106258;28;20085;-73
2023/02/03 10:20:53;;;;;;;6.47;1.50;;;7.70;99.90;;;;;;5087665;28;20044;-73
2023/02/03 10:23:53;;;;;;;4.50;1.52;;;7.70;99.90;;;;;;5083968;28;20028;-73
2023/02/03 10:26:25;;;;;;;3.17;1.10;;;7.70;99.90;;;;;;5064384;28;20493;-73
2023/02/03 10:28:55;;;;;;;3.15;1.38;;;7.80;99.90;;;;;;5077795;28;20020;-73
2023/02/03 10:31:26;;;;;;;3.53;1.48;;;7.70;99.90;;;;;;5092671;28;20036;-73
2023/02/03 10:34:13;;;;;;;1.60;1.08;;;7.70;99.90;;;;;;5073534;28;20039;-73
2023/02/03 10:36:47;;;;;;;3.03;1.50;;;7.70;99.90;;;;;;5078020;28;20073;-73
2023/02/03 10:39:42;;;;;;;2.60;1.30;;;7.80;99.90;;;;;;5088805;28;20042;-76
2023/02/03 10:42:10;;;;;;;6.88;1.92;;;7.90;99.90;;;;;;5080536;28;20084;-73
2023/02/03 10:44:47;;;;;;;5.22;1.23;;;7.90;99.90;;;;;;5093560;28;20024;-73
2023/02/03 10:47:38;;;;;;;3.95;1.35;;;8.00;99.90;;;;;;5089017;28;20036;-74
2023/02/03 10:50:15;;;;;;;1.92;1.00;;;8.10;99.90;;;;;;5076458;28;20024;-75
2023/02/03 10:52:41;;;;;;;3.65;1.05;;;8.10;99.90;;;;;;5077090;28;20739;-75
2023/02/03 10:55:31;;;;;;;2.95;1.10;;;8.10;99.90;;;;;;5077568;28;20065;-74
2023/02/03 10:58:04;;;;;;;2.75;1.30;;;8.10;99.90;;;;;;5065927;28;20036;-74
2023/02/03 11:00:33;;;;;;;2.00;1.23;;;8.10;99.90;;;;;;5089719;28;20039;-74
2023/02/03 11:03:14;;;;;;;3.40;1.05;;;8.20;99.90;;;;;;5091384;28;20084;-75
2023/02/03 11:05:39;;;;;;;2.70;0.85;;;8.20;99.90;;;;;;5092368;28;20024;-74
2023/02/03 11:08:16;;;;;;;3.30;0.82;;;8.30;99.90;;;;;;5107862;28;20051;-75
2023/02/03 11:10:42;;;;;;;1.90;1.00;;;8.30;99.90;;;;;;5091182;28;20028;-74
2023/02/03 11:13:24;;;;;;;1.23;0.80;;;8.30;99.90;;;;;;5091975;28;20031;-74
2023/02/03 11:16:05;;;;;;;1.67;1.00;;;8.30;99.90;;;;;;5096711;28;20026;-74
2023/02/03 11:19:02;;;;;;;2.03;0.80;;;8.30;99.90;;;;;;5097327;28;20031;-74
2023/02/03 11:21:37;;;;;;;1.67;0.60;;;8.40;99.90;;;;;;5060533;28;20269;-74
2023/02/03 11:24:19;;;;;;;2.83;0.90;;;8.40;99.90;;;;;;5094672;28;20056;-80
2023/02/03 11:26:53;;;;;;;2.47;0.85;;;8.40;99.90;;;;;;5094867;28;20039;-73
2023/02/03 11:29:31;;;;;;;0.80;0.75;;;8.50;99.90;;;;;;5074782;28;20114;-73
2023/02/03 11:31:58;;;;;;;1.35;0.70;;;8.50;99.90;;;;;;5063951;28;20373;-74
2023/02/03 11:34:33;;;;;;;2.33;0.68;;;8.50;99.90;;;;;;5074774;28;20031;-74
2023/02/03 11:37:30;;;;;;;2.28;0.90;;;8.50;99.90;;;;;;5075107;28;20419;-74
2023/02/03 11:40:09;;;;;;;2.92;0.80;;;8.60;99.90;;;;;;5093245;28;20023;-75
2023/02/03 11:42:55;;;;;;;4.40;0.95;;;8.50;99.90;;;;;;5074851;28;20194;-75
2023/02/03 11:45:33;;;;;;;2.95;0.80;;;8.50;99.90;;;;;;5092196;28;20561;-74
2023/02/03 11:48:29;;;;;;;5.13;1.50;;;8.70;99.90;;;;;;5081318;28;20107;-74
2023/02/03 11:51:03;;;;;;;4.00;0.93;;;8.80;99.90;;;;;;5074845;28;20154;-74
2023/02/03 11:53:52;;;;;;;1.38;0.68;;;8.80;99.90;;;;;;5074857;28;20028;-76
2023/02/03 11:56:39;;;;;;;1.85;0.85;;;8.80;99.90;;;;;;5074583;28;20465;-77
2023/02/03 11:59:14;;;;;;;3.80;1.35;;;8.80;99.90;;;;;;5074366;28;20111;-81
2023/02/03 12:02:03;;;;;;;1.52;1.08;;;8.80;99.90;;;;;;5072022;28;20658;-77
2023/02/03 12:05:21;;;;;;;3.67;1.25;;;8.70;99.90;;;;;;5086517;28;20040;-77
2023/02/03 12:08:02;;;;;;;0.93;0.70;;;8.70;99.90;;;;;;5073654;28;20050;-77
2023/02/03 12:10:55;;;;;;;0.93;0.70;;;8.70;99.90;;;;;;5075206;28;20496;-77
2023/02/03 12:13:30;;;;;;;2.00;0.73;;;8.70;99.90;;;;;;5074969;28;20028;-75
2023/02/03 12:16:33;;;;;;;0.70;0.60;;;8.70;99.90;;;;;;5075534;28;20067;-75
2023/02/03 12:19:31;;;;;;;0.73;0.70;;;8.80;99.90;;;;;;5059820;28;20024;-77
2023/02/03 12:22:18;;;;;;;1.35;0.70;;;8.80;99.90;;;;;;5080674;28;20032;-76
2023/02/03 12:25:08;;;;;;;1.60;0.50;;;8.80;99.90;;;;;;5074264;28;20504;-77
2023/02/03 12:27:48;;;;;;;4.82;0.70;;;8.80;99.90;;;;;;5071409;28;20412;-78
2023/02/03 12:30:16;;;;;;;1.15;0.60;;;8.80;99.90;;;;;;5091953;28;20070;-74
2023/02/03 12:32:59;;;;;;;0.98;0.60;;;8.80;99.90;;;;;;5092351;28;20032;-74
2023/02/03 12:35:24;;;;;;;;;;;8.80;99.90;;;;;;5069200;28;20157;-74
2023/02/03 12:38:20;;;;;;;0.68;0.68;;;8.70;99.90;;;;;;5092073;28;20384;-74
2023/02/03 12:40:59;;;;;;;0.68;0.65;;;8.70;99.90;;;;;;5073989;28;20112;-74
2023/02/03 12:43:30;;;;;;;1.13;0.60;;;8.70;99.90;;;;;;5069931;28;20134;-75
2023/02/03 12:46:03;;;;;;;0.77;0.60;;;8.70;99.90;;;;;;5092351;28;20024;-74
2023/02/03 12:48:41;;;;;;;0.65;0.60;;;8.70;99.90;;;;;;5073860;28;20038;-75
2023/02/03 12:51:27;;;;;;;1.50;0.60;;;8.70;99.90;;;;;;5071764;28;20090;-75
2023/02/03 12:53:59;;;;;;;1.95;0.70;;;8.70;99.90;;;;;;5068247;28;20032;-75
2023/02/03 12:56:33;;;;;;;0.90;0.70;;;8.70;99.90;;;;;;5073094;28;20060;-74
2023/02/03 12:59:16;;;;;;;1.60;0.90;;;8.70;99.90;;;;;;5070433;28;20031;-74
2023/02/03 13:01:45;;;;;;;;;;;8.70;99.90;;;;;;5071205;28;20020;-74
2023/02/03 13:04:27;;;;;;;2.88;0.90;;;8.70;99.90;;;;;;5074574;28;20311;-74
2023/02/03 13:07:28;;;;;;;0.60;0.60;;;8.80;99.90;;;;;;5074161;28;20031;-74
2023/02/03 13:10:02;;;;;;;1.23;0.60;;;8.80;99.90;;;;;;5074310;28;20032;-74
2023/02/03 13:12:33;;;;;;;1.77;0.60;;;8.90;99.90;;;;;;5091970;28;20069;-75
2023/02/03 13:15:19;;;;;;;0.65;0.60;;;8.90;99.90;;;;;;5092522;28;20101;-74
2023/02/03 13:18:02;;;;;;;1.40;0.68;;;9.00;99.90;;;;;;5073821;28;20426;-74
2023/02/03 13:20:33;;;;;;;2.95;0.70;;;8.90;99.90;;;;;;5085611;28;20126;-74
2023/02/03 13:23:00;;;;;;;2.22;0.65;;;8.90;99.90;;;;;;5094313;28;20047;-75